sensor_id;sensor_type;location;lat;lon;timestamp;pressure;altitude;pressure_sealevel;temperature;humidity
71791;BME280;59638;52.126;5.434;2022-12-07T00:01:34;102011.19;;;2.37;100.00
71791;BME280;59638;52.126;5.434;2022-12-07T00:04:02;102012.38;;;2.29;100.00
71791;BME280;59638;52.126;5.434;2022-12-07T00:06:33;102004.84;;;2.21;100.00
71791;BME280;59638;52.126;5.434;2022-12-07T00:09:00;102008.38;;;2.20;100.00
71791;BME280;59638;52.126;5.434;2022-12-07T00:11:27;102004.06;;;2.19;100.00
71791;BME280;59638;52.126;5.434;2022-12-07T00:13:56;102005.97;;;2.14;100.00
71791;BME280;59638;52.126;5.434;2022-12-07T00:16:24;102018.25;;;2.10;100.00
71791;BME280;59638;52.126;5.434;2022-12-07T00:18:51;102013.38;;;2.01;100.00
71791;BME280;59638;52.126;5.434;2022-12-07T00:21:20;102009.16;;;1.99;100.00
71791;BME280;59638;52.126;5.434;2022-12-07T00:23:48;102009.16;;;1.99;100.00
71791;BME280;59638;52.126;5.434;2022-12-07T00:26:19;102000.00;;;2.12;100.00
71791;BME280;59638;52.126;5.434;2022-12-07T00:28:47;101986.16;;;2.10;100.00
71791;BME280;59638;52.126;5.434;2022-12-07T00:31:15;102002.53;;;2.13;100.00
71791;BME280;59638;52.126;5.434;2022-12-07T00:33:42;101990.22;;;2.17;100.00
71791;BME280;59638;52.126;5.434;2022-12-07T00:36:10;101992.63;;;2.23;100.00
71791;BME280;59638;52.126;5.434;2022-12-07T00:38:38;101989.09;;;2.24;100.00
71791;BME280;59638;52.126;5.434;2022-12-07T00:41:10;101978.59;;;2.27;100.00
71791;BME280;59638;52.126;5.434;2022-12-07T00:43:37;101984.41;;;2.34;100.00
71791;BME280;59638;52.126;5.434;2022-12-07T00:46:04;101984.91;;;2.43;100.00
71791;BME280;59638;52.126;5.434;2022-12-07T00:48:30;101974.16;;;2.53;100.00
71791;BME280;59638;52.126;5.434;2022-12-07T00:50:57;101971.56;;;2.53;100.00
71791;BME280;59638;52.126;5.434;2022-12-07T00:53:24;101979.69;;;2.43;100.00
71791;BME280;59638;52.126;5.434;2022-12-07T00:55:50;101974.97;;;2.31;100.00
71791;BME280;59638;52.126;5.434;2022-12-07T00:58:19;101982.25;;;2.22;100.00
71791;BME280;59638;52.126;5.434;2022-12-07T01:00:45;101979.03;;;2.15;100.00
71791;BME280;59638;52.126;5.434;2022-12-07T01:03:13;101981.16;;;2.04;100.00
71791;BME280;59638;52.126;5.434;2022-12-07T01:05:49;101975.28;;;1.99;100.00
71791;BME280;59638;52.126;5.434;2022-12-07T01:08:15;101969.38;;;1.94;100.00
71791;BME280;59638;52.126;5.434;2022-12-07T01:10:42;101972.06;;;1.92;100.00
71791;BME280;59638;52.126;5.434;2022-12-07T01:13:08;101977.78;;;2.02;100.00
71791;BME280;59638;52.126;5.434;2022-12-07T01:15:39;101975.22;;;2.00;100.00
71791;BME280;59638;52.126;5.434;2022-12-07T01:18:05;101972.56;;;2.02;100.00
71791;BME280;59638;52.126;5.434;2022-12-07T01:20:32;101975.06;;;2.05;100.00
71791;BME280;59638;52.126;5.434;2022-12-07T01:22:58;101973.19;;;2.08;100.00
71791;BME280;59638;52.126;5.434;2022-12-07T01:25:25;101971.38;;;2.10;100.00
71791;BME280;59638;52.126;5.434;2022-12-07T01:27:51;101980.03;;;2.11;100.00
71791;BME280;59638;52.126;5.434;2022-12-07T01:30:18;101978.31;;;2.11;100.00
71791;BME280;59638;52.126;5.434;2022-12-07T01:32:44;101984.38;;;2.12;100.00
71791;BME280;59638;52.126;5.434;2022-12-07T01:35:11;101978.25;;;2.13;100.00
71791;BME280;59638;52.126;5.434;2022-12-07T01:37:38;101986.06;;;2.13;100.00
71791;BME280;59638;52.126;5.434;2022-12-07T01:40:06;101976.47;;;2.13;100.00
71791;BME280;59638;52.126;5.434;2022-12-07T01:42:34;101980.84;;;2.13;100.00
71791;BME280;59638;52.126;5.434;2022-12-07T01:47:51;101983.81;;;2.02;100.00
71791;BME280;59638;52.126;5.434;2022-12-07T01:50:20;101990.91;;;1.99;100.00
71791;BME280;59638;52.126;5.434;2022-12-07T01:52:49;101983.31;;;1.93;100.00
71791;BME280;59638;52.126;5.434;2022-12-07T01:55:17;101982.84;;;1.81;100.00
71791;BME280;59638;52.126;5.434;2022-12-07T01:57:47;101981.22;;;1.77;100.00
71791;BME280;59638;52.126;5.434;2022-12-07T02:00:16;101978.69;;;1.76;100.00
71791;BME280;59638;52.126;5.434;2022-12-07T02:02:47;101979.66;;;1.73;100.00
71791;BME280;59638;52.126;5.434;2022-12-07T02:05:16;101982.97;;;1.78;100.00
71791;BME280;59638;52.126;5.434;2022-12-07T02:07:44;101989.81;;;1.81;100.00
71791;BME280;59638;52.126;5.434;2022-12-07T02:10:17;101980.81;;;1.89;100.00
71791;BME280;59638;52.126;5.434;2022-12-07T02:12:48;101979.03;;;1.92;100.00
71791;BME280;59638;52.126;5.434;2022-12-07T02:15:15;101977.19;;;1.94;100.00
71791;BME280;59638;52.126;5.434;2022-12-07T02:18:20;101974.47;;;1.97;100.00
71791;BME280;59638;52.126;5.434;2022-12-07T02:21:21;101974.59;;;1.94;100.00
71791;BME280;59638;52.126;5.434;2022-12-07T02:24:12;101973.47;;;2.01;100.00
71791;BME280;59638;52.126;5.434;2022-12-07T02:26:51;101981.84;;;2.09;100.00
71791;BME280;59638;52.126;5.434;2022-12-07T02:29:39;101972.63;;;2.24;100.00
71791;BME280;59638;52.126;5.434;2022-12-07T02:32:20;101969.84;;;2.28;100.00
71791;BME280;59638;52.126;5.434;2022-12-07T02:34:52;101971.31;;;2.35;100.00
71791;BME280;59638;52.126;5.434;2022-12-07T02:37:47;101967.81;;;2.36;100.00
71791;BME280;59638;52.126;5.434;2022-12-07T02:40:21;101967.72;;;2.39;100.00
71791;BME280;59638;52.126;5.434;2022-12-07T02:42:57;101962.38;;;2.42;100.00
71791;BME280;59638;52.126;5.434;2022-12-07T02:45:27;101966.56;;;2.47;100.00
71791;BME280;59638;52.126;5.434;2022-12-07T02:47:58;101958.31;;;2.57;100.00
71791;BME280;59638;52.126;5.434;2022-12-07T02:50:27;101962.59;;;2.60;100.00
71791;BME280;59638;52.126;5.434;2022-12-07T02:52:54;101956.31;;;2.64;100.00
71791;BME280;59638;52.126;5.434;2022-12-07T02:55:27;101968.34;;;2.68;100.00
71791;BME280;59638;52.126;5.434;2022-12-07T03:03:50;101962.53;;;2.83;100.00
71791;BME280;59638;52.126;5.434;2022-12-07T03:06:28;101956.59;;;2.80;100.00
71791;BME280;59638;52.126;5.434;2022-12-07T03:09:15;101969.81;;;2.75;100.00
71791;BME280;59638;52.126;5.434;2022-12-07T03:12:00;101980.41;;;2.70;100.00
71791;BME280;59638;52.126;5.434;2022-12-07T03:14:35;101967.09;;;2.78;100.00
71791;BME280;59638;52.126;5.434;2022-12-07T03:17:16;101959.03;;;2.84;100.00
71791;BME280;59638;52.126;5.434;2022-12-07T03:19:45;101955.38;;;2.88;100.00
71791;BME280;59638;52.126;5.434;2022-12-07T03:22:14;101953.59;;;2.89;100.00
71791;BME280;59638;52.126;5.434;2022-12-07T03:24:47;101952.75;;;2.88;100.00
71791;BME280;59638;52.126;5.434;2022-12-07T03:27:34;101957.31;;;2.83;100.00
71791;BME280;59638;52.126;5.434;2022-12-07T03:30:07;101959.38;;;2.75;100.00
71791;BME280;59638;52.126;5.434;2022-12-07T03:32:38;101956.06;;;2.71;100.00
71791;BME280;59638;52.126;5.434;2022-12-07T03:40:41;101959.06;;;2.61;100.00
71791;BME280;59638;52.126;5.434;2022-12-07T03:43:10;101947.88;;;2.59;100.00
71791;BME280;59638;52.126;5.434;2022-12-07T03:45:40;101946.28;;;2.55;100.00
71791;BME280;59638;52.126;5.434;2022-12-07T03:48:32;101942.28;;;2.46;100.00
71791;BME280;59638;52.126;5.434;2022-12-07T03:51:18;101941.81;;;2.35;100.00
71791;BME280;59638;52.126;5.434;2022-12-07T03:53:52;101940.19;;;2.32;100.00
71791;BME280;59638;52.126;5.434;2022-12-07T03:56:21;101948.91;;;2.31;100.00
71791;BME280;59638;52.126;5.434;2022-12-07T03:58:48;101947.94;;;2.34;100.00
71791;BME280;59638;52.126;5.434;2022-12-07T04:01:17;101952.06;;;2.39;100.00
71791;BME280;59638;52.126;5.434;2022-12-07T04:03:44;101946.63;;;2.45;100.00
71791;BME280;59638;52.126;5.434;2022-12-07T04:06:11;101946.88;;;2.39;100.00
71791;BME280;59638;52.126;5.434;2022-12-07T04:08:37;101945.41;;;2.32;100.00
71791;BME280;59638;52.126;5.434;2022-12-07T04:11:04;101942.78;;;2.32;100.00
71791;BME280;59638;52.126;5.434;2022-12-07T04:13:30;101934.84;;;2.35;100.00
71791;BME280;59638;52.126;5.434;2022-12-07T04:16:16;101933.63;;;2.44;100.00
71791;BME280;59638;52.126;5.434;2022-12-07T04:18:43;101928.09;;;2.53;100.00
71791;BME280;59638;52.126;5.434;2022-12-07T04:21:09;101932.22;;;2.59;100.00
71791;BME280;59638;52.126;5.434;2022-12-07T04:23:35;101933.91;;;2.60;100.00
71791;BME280;59638;52.126;5.434;2022-12-07T04:26:02;101931.31;;;2.60;100.00
71791;BME280;59638;52.126;5.434;2022-12-07T04:28:28;101936.44;;;2.61;100.00
71791;BME280;59638;52.126;5.434;2022-12-07T04:30:55;101937.31;;;2.62;100.00
71791;BME280;59638;52.126;5.434;2022-12-07T04:33:22;101938.28;;;2.59;100.00
71791;BME280;59638;52.126;5.434;2022-12-07T04:35:48;101935.97;;;2.52;100.00
71791;BME280;59638;52.126;5.434;2022-12-07T04:38:14;101935.28;;;2.47;100.00
71791;BME280;59638;52.126;5.434;2022-12-07T04:40:41;101927.72;;;2.40;100.00
71791;BME280;59638;52.126;5.434;2022-12-07T04:43:07;101929.63;;;2.35;100.00
71791;BME280;59638;52.126;5.434;2022-12-07T04:45:34;101922.72;;;2.34;100.00
71791;BME280;59638;52.126;5.434;2022-12-07T04:48:00;101931.22;;;2.39;100.00
71791;BME280;59638;52.126;5.434;2022-12-07T04:50:26;101926.81;;;2.41;100.00
71791;BME280;59638;52.126;5.434;2022-12-07T04:52:53;101927.25;;;2.53;100.00
71791;BME280;59638;52.126;5.434;2022-12-07T04:55:19;101931.16;;;2.63;100.00
71791;BME280;59638;52.126;5.434;2022-12-07T04:57:46;101931.16;;;2.63;100.00
71791;BME280;59638;52.126;5.434;2022-12-07T05:00:12;101931.84;;;2.68;100.00
71791;BME280;59638;52.126;5.434;2022-12-07T05:02:38;101921.19;;;2.74;100.00
71791;BME280;59638;52.126;5.434;2022-12-07T05:05:05;101928.09;;;2.75;100.00
71791;BME280;59638;52.126;5.434;2022-12-07T05:07:32;101911.00;;;2.68;100.00
71791;BME280;59638;52.126;5.434;2022-12-07T05:09:58;101910.28;;;2.64;100.00
71791;BME280;59638;52.126;5.434;2022-12-07T05:12:25;101911.31;;;2.60;100.00
71791;BME280;59638;52.126;5.434;2022-12-07T05:14:51;101909.94;;;2.50;100.00
71791;BME280;59638;52.126;5.434;2022-12-07T05:17:18;101908.47;;;2.44;100.00
71791;BME280;59638;52.126;5.434;2022-12-07T05:19:44;101914.00;;;2.35;100.00
71791;BME280;59638;52.126;5.434;2022-12-07T05:22:11;101905.03;;;2.21;100.00
71791;BME280;59638;52.126;5.434;2022-12-07T05:24:37;101910.41;;;2.16;100.00
71791;BME280;59638;52.126;5.434;2022-12-07T05:27:03;101911.53;;;2.09;100.00
71791;BME280;59638;52.126;5.434;2022-12-07T05:29:30;101919.50;;;2.04;100.00
71791;BME280;59638;52.126;5.434;2022-12-07T05:31:56;101909.34;;;1.98;100.00
71791;BME280;59638;52.126;5.434;2022-12-07T05:34:23;101916.56;;;1.90;100.00
71791;BME280;59638;52.126;5.434;2022-12-07T05:36:49;101920.13;;;1.87;100.00
71791;BME280;59638;52.126;5.434;2022-12-07T05:39:16;101914.88;;;1.89;100.00
71791;BME280;59638;52.126;5.434;2022-12-07T05:41:43;101911.34;;;1.90;100.00
71791;BME280;59638;52.126;5.434;2022-12-07T05:44:27;101914.25;;;1.82;100.00
71791;BME280;59638;52.126;5.434;2022-12-07T05:46:54;101915.38;;;1.75;100.00
71791;BME280;59638;52.126;5.434;2022-12-07T05:49:20;101918.19;;;1.69;100.00
71791;BME280;59638;52.126;5.434;2022-12-07T05:51:47;101921.50;;;1.74;100.00
71791;BME280;59638;52.126;5.434;2022-12-07T05:54:13;101924.25;;;1.70;100.00
71791;BME280;59638;52.126;5.434;2022-12-07T05:56:39;101911.38;;;1.65;100.00
71791;BME280;59638;52.126;5.434;2022-12-07T05:59:06;101919.78;;;1.73;100.00
71791;BME280;59638;52.126;5.434;2022-12-07T06:02:01;101926.78;;;1.71;100.00
71791;BME280;59638;52.126;5.434;2022-12-07T06:04:33;101925.00;;;1.73;100.00
71791;BME280;59638;52.126;5.434;2022-12-07T06:07:00;101919.44;;;1.82;100.00
71791;BME280;59638;52.126;5.434;2022-12-07T06:09:27;101919.13;;;1.92;100.00
71791;BME280;59638;52.126;5.434;2022-12-07T06:11:55;101916.56;;;1.90;100.00
71791;BME280;59638;52.126;5.434;2022-12-07T06:14:40;101922.84;;;1.84;100.00
71791;BME280;59638;52.126;5.434;2022-12-07T06:17:07;101922.19;;;1.79;100.00
71791;BME280;59638;52.126;5.434;2022-12-07T06:19:33;101926.69;;;1.74;100.00
71791;BME280;59638;52.126;5.434;2022-12-07T06:22:01;101926.13;;;1.66;100.00
71791;BME280;59638;52.126;5.434;2022-12-07T06:24:28;101929.78;;;1.60;100.00
71791;BME280;59638;52.126;5.434;2022-12-07T06:26:55;101930.63;;;1.61;100.00
71791;BME280;59638;52.126;5.434;2022-12-07T06:29:21;101930.41;;;1.67;100.00
71791;BME280;59638;52.126;5.434;2022-12-07T06:31:48;101930.00;;;1.79;100.00
71791;BME280;59638;52.126;5.434;2022-12-07T06:34:20;101927.16;;;1.85;100.00
71791;BME280;59638;52.126;5.434;2022-12-07T06:36:50;101923.81;;;1.82;100.00
71791;BME280;59638;52.126;5.434;2022-12-07T06:39:23;101925.63;;;1.80;100.00
71791;BME280;59638;52.126;5.434;2022-12-07T06:41:50;101931.78;;;1.77;100.00
71791;BME280;59638;52.126;5.434;2022-12-07T06:44:18;101929.34;;;1.73;100.00
71791;BME280;59638;52.126;5.434;2022-12-07T06:46:45;101934.44;;;1.76;100.00
71791;BME280;59638;52.126;5.434;2022-12-07T06:49:11;101930.84;;;1.80;100.00
71791;BME280;59638;52.126;5.434;2022-12-07T06:51:38;101928.03;;;1.84;100.00
71791;BME280;59638;52.126;5.434;2022-12-07T06:54:08;101929.78;;;1.85;100.00
71791;BME280;59638;52.126;5.434;2022-12-07T06:56:34;101930.94;;;1.77;100.00
71791;BME280;59638;52.126;5.434;2022-12-07T06:59:02;101930.28;;;1.70;100.00
71791;BME280;59638;52.126;5.434;2022-12-07T07:01:28;101932.31;;;1.62;100.00
71791;BME280;59638;52.126;5.434;2022-12-07T07:03:55;101927.34;;;1.56;100.00
71791;BME280;59638;52.126;5.434;2022-12-07T07:06:21;101927.44;;;1.53;100.00
71791;BME280;59638;52.126;5.434;2022-12-07T07:08:47;101921.56;;;1.48;100.00
71791;BME280;59638;52.126;5.434;2022-12-07T07:11:14;101927.75;;;1.44;100.00
71791;BME280;59638;52.126;5.434;2022-12-07T07:13:40;101927.66;;;1.47;100.00
71791;BME280;59638;52.126;5.434;2022-12-07T07:16:07;101926.25;;;1.36;100.00
71791;BME280;59638;52.126;5.434;2022-12-07T07:18:34;101930.56;;;1.38;100.00
71791;BME280;59638;52.126;5.434;2022-12-07T07:21:01;101932.44;;;1.34;100.00
71791;BME280;59638;52.126;5.434;2022-12-07T07:23:28;101947.28;;;1.30;100.00
71791;BME280;59638;52.126;5.434;2022-12-07T07:25:54;101937.91;;;1.25;100.00
71791;BME280;59638;52.126;5.434;2022-12-07T07:28:21;101937.19;;;1.21;100.00
71791;BME280;59638;52.126;5.434;2022-12-07T07:30:48;101939.09;;;1.16;100.00
71791;BME280;59638;52.126;5.434;2022-12-07T07:33:14;101931.34;;;1.15;100.00
71791;BME280;59638;52.126;5.434;2022-12-07T07:35:41;101932.06;;;1.18;100.00
71791;BME280;59638;52.126;5.434;2022-12-07T07:38:08;101939.09;;;1.16;100.00
71791;BME280;59638;52.126;5.434;2022-12-07T07:40:35;101930.56;;;1.11;100.00
71791;BME280;59638;52.126;5.434;2022-12-07T07:43:01;101935.00;;;1.09;100.00
71791;BME280;59638;52.126;5.434;2022-12-07T07:45:28;101935.06;;;1.07;100.00
71791;BME280;59638;52.126;5.434;2022-12-07T07:47:54;101936.09;;;1.02;100.00
71791;BME280;59638;52.126;5.434;2022-12-07T07:50:21;101934.28;;;1.04;100.00
71791;BME280;59638;52.126;5.434;2022-12-07T07:52:47;101943.69;;;1.08;100.00
71791;BME280;59638;52.126;5.434;2022-12-07T07:55:14;101939.47;;;1.04;100.00
71791;BME280;59638;52.126;5.434;2022-12-07T07:57:43;101943.09;;;1.00;100.00
71791;BME280;59638;52.126;5.434;2022-12-07T08:00:16;101942.19;;;1.01;100.00
71791;BME280;59638;52.126;5.434;2022-12-07T08:02:43;101940.97;;;1.11;100.00
71791;BME280;59638;52.126;5.434;2022-12-07T08:05:11;101945.91;;;1.20;100.00
71791;BME280;59638;52.126;5.434;2022-12-07T08:07:38;101949.16;;;1.27;100.00
71791;BME280;59638;52.126;5.434;2022-12-07T08:10:06;101947.28;;;1.30;100.00
71791;BME280;59638;52.126;5.434;2022-12-07T08:12:36;101947.28;;;1.30;100.00
71791;BME280;59638;52.126;5.434;2022-12-07T08:15:03;101945.56;;;1.29;100.00
71791;BME280;59638;52.126;5.434;2022-12-07T08:17:30;101953.31;;;1.32;100.00
71791;BME280;59638;52.126;5.434;2022-12-07T08:19:56;101950.59;;;1.35;100.00
71791;BME280;59638;52.126;5.434;2022-12-07T08:22:23;101953.78;;;1.44;100.00
71791;BME280;59638;52.126;5.434;2022-12-07T08:24:49;101956.75;;;1.58;100.00
71791;BME280;59638;52.126;5.434;2022-12-07T08:27:15;101959.53;;;1.78;100.00
71791;BME280;59638;52.126;5.434;2022-12-07T08:29:42;101951.50;;;2.08;100.00
71791;BME280;59638;52.126;5.434;2022-12-07T08:32:08;101954.84;;;2.35;100.00
71791;BME280;59638;52.126;5.434;2022-12-07T08:34:35;101948.09;;;2.53;100.00
71791;BME280;59638;52.126;5.434;2022-12-07T08:37:03;101945.78;;;2.67;100.00
71791;BME280;59638;52.126;5.434;2022-12-07T08:39:29;101938.44;;;2.77;100.00
71791;BME280;59638;52.126;5.434;2022-12-07T08:41:57;101933.56;;;2.91;100.00
71791;BME280;59638;52.126;5.434;2022-12-07T08:44:24;101938.84;;;3.10;100.00
71791;BME280;59638;52.126;5.434;2022-12-07T08:46:54;101941.03;;;3.20;100.00
71791;BME280;59638;52.126;5.434;2022-12-07T08:49:26;101945.16;;;3.26;100.00
71791;BME280;59638;52.126;5.434;2022-12-07T08:51:55;101942.06;;;3.37;100.00
71791;BME280;59638;52.126;5.434;2022-12-07T08:54:21;101932.09;;;3.46;100.00
71791;BME280;59638;52.126;5.434;2022-12-07T08:56:49;101935.22;;;3.54;100.00
71791;BME280;59638;52.126;5.434;2022-12-07T08:59:24;101936.06;;;3.55;100.00
71791;BME280;59638;52.126;5.434;2022-12-07T09:01:50;101934.38;;;3.54;100.00
71791;BME280;59638;52.126;5.434;2022-12-07T09:04:17;101941.13;;;3.60;100.00
71791;BME280;59638;52.126;5.434;2022-12-07T09:06:43;101933.69;;;3.71;100.00
71791;BME280;59638;52.126;5.434;2022-12-07T09:09:11;101941.34;;;3.74;100.00
71791;BME280;59638;52.126;5.434;2022-12-07T09:11:39;101933.41;;;3.77;100.00
71791;BME280;59638;52.126;5.434;2022-12-07T09:14:05;101938.66;;;3.75;100.00
71791;BME280;59638;52.126;5.434;2022-12-07T09:16:33;101935.78;;;3.81;100.00
71791;BME280;59638;52.126;5.434;2022-12-07T09:19:00;101935.44;;;4.09;100.00
71791;BME280;59638;52.126;5.434;2022-12-07T09:21:26;101932.41;;;4.19;100.00
71791;BME280;59638;52.126;5.434;2022-12-07T09:23:53;101936.25;;;4.29;100.00
71791;BME280;59638;52.126;5.434;2022-12-07T09:26:19;101940.94;;;4.60;100.00
71791;BME280;59638;52.126;5.434;2022-12-07T09:28:45;101939.84;;;6.20;100.00
71791;BME280;59638;52.126;5.434;2022-12-07T09:31:12;101938.75;;;6.87;100.00
71791;BME280;59638;52.126;5.434;2022-12-07T09:33:59;101935.97;;;5.94;100.00
71791;BME280;59638;52.126;5.434;2022-12-07T09:36:27;101947.13;;;5.47;100.00
71791;BME280;59638;52.126;5.434;2022-12-07T09:38:54;101945.44;;;5.29;100.00
71791;BME280;59638;52.126;5.434;2022-12-07T09:41:21;101943.72;;;5.10;100.00
71791;BME280;59638;52.126;5.434;2022-12-07T09:43:48;101941.53;;;5.01;100.00
71791;BME280;59638;52.126;5.434;2022-12-07T09:46:16;101933.88;;;5.15;100.00
71791;BME280;59638;52.126;5.434;2022-12-07T09:48:45;101942.03;;;5.09;100.00
71791;BME280;59638;52.126;5.434;2022-12-07T09:51:21;101932.19;;;5.32;100.00
71791;BME280;59638;52.126;5.434;2022-12-07T09:53:52;101938.50;;;5.28;100.00
71791;BME280;59638;52.126;5.434;2022-12-07T09:56:19;101941.97;;;5.45;100.00
71791;BME280;59638;52.126;5.434;2022-12-07T09:58:46;101929.53;;;5.66;100.00
71791;BME280;59638;52.126;5.434;2022-12-07T10:01:18;101923.31;;;5.52;100.00
71791;BME280;59638;52.126;5.434;2022-12-07T10:04:01;101929.25;;;5.38;100.00
71791;BME280;59638;52.126;5.434;2022-12-07T10:06:28;101925.09;;;5.34;100.00
71791;BME280;59638;52.126;5.434;2022-12-07T10:08:54;101924.66;;;5.43;100.00
71791;BME280;59638;52.126;5.434;2022-12-07T10:11:21;101918.00;;;5.53;100.00
71791;BME280;59638;52.126;5.434;2022-12-07T10:13:51;101920.88;;;5.49;100.00
71791;BME280;59638;52.126;5.434;2022-12-07T10:16:40;101919.00;;;5.33;100.00
71791;BME280;59638;52.126;5.434;2022-12-07T10:19:33;101915.41;;;5.36;100.00
71791;BME280;59638;52.126;5.434;2022-12-07T10:24:35;101898.00;;;6.50;100.00
71791;BME280;59638;52.126;5.434;2022-12-07T10:29:47;101889.69;;;8.19;100.00
71791;BME280;59638;52.126;5.434;2022-12-07T10:34:41;101890.03;;;6.67;100.00
71791;BME280;59638;52.126;5.434;2022-12-07T10:37:17;101896.47;;;6.46;100.00
71791;BME280;59638;52.126;5.434;2022-12-07T10:39:50;101893.59;;;6.50;100.00
71791;BME280;59638;52.126;5.434;2022-12-07T10:45:13;101877.16;;;8.91;100.00
71791;BME280;59638;52.126;5.434;2022-12-07T10:50:52;101858.75;;;11.70;98.17
71791;BME280;59638;52.126;5.434;2022-12-07T10:53:48;101860.91;;;12.53;92.91
71791;BME280;59638;52.126;5.434;2022-12-07T10:59:39;101868.78;;;9.37;100.00
71791;BME280;59638;52.126;5.434;2022-12-07T11:02:25;101878.00;;;8.37;100.00
71791;BME280;59638;52.126;5.434;2022-12-07T11:11:30;101863.28;;;10.64;98.71
71791;BME280;59638;52.126;5.434;2022-12-07T11:16:11;101856.78;;;9.33;100.00
71791;BME280;59638;52.126;5.434;2022-12-07T11:19:19;101863.56;;;8.57;100.00
71791;BME280;59638;52.126;5.434;2022-12-07T11:22:16;101855.91;;;7.84;100.00
71791;BME280;59638;52.126;5.434;2022-12-07T11:25:02;101848.34;;;7.07;100.00
71791;BME280;59638;52.126;5.434;2022-12-07T11:27:37;101858.06;;;6.61;100.00
71791;BME280;59638;52.126;5.434;2022-12-07T11:30:21;101857.66;;;6.21;100.00
71791;BME280;59638;52.126;5.434;2022-12-07T11:38:25;101853.97;;;5.59;100.00
71791;BME280;59638;52.126;5.434;2022-12-07T11:41:00;101849.25;;;5.50;100.00
71791;BME280;59638;52.126;5.434;2022-12-07T11:46:15;101826.00;;;9.71;100.00
71791;BME280;59638;52.126;5.434;2022-12-07T11:49:10;101816.28;;;11.71;93.89
71791;BME280;59638;52.126;5.434;2022-12-07T11:51:40;101813.75;;;12.04;91.55
71791;BME280;59638;52.126;5.434;2022-12-07T11:54:15;101808.31;;;12.16;89.23
71791;BME280;59638;52.126;5.434;2022-12-07T11:56:45;101811.25;;;12.66;88.66
71791;BME280;59638;52.126;5.434;2022-12-07T11:59:53;101810.13;;;13.01;89.07
71791;BME280;59638;52.126;5.434;2022-12-07T12:02:28;101806.56;;;13.12;83.03
71791;BME280;59638;52.126;5.434;2022-12-07T12:05:22;101805.13;;;13.59;80.82
71791;BME280;59638;52.126;5.434;2022-12-07T12:08:13;101800.19;;;14.64;77.11
71791;BME280;59638;52.126;5.434;2022-12-07T12:11:52;101791.47;;;13.54;75.28
71791;BME280;59638;52.126;5.434;2022-12-07T12:18:10;101787.69;;;14.16;72.72
71791;BME280;59638;52.126;5.434;2022-12-07T12:20:47;101780.44;;;14.76;66.12
71791;BME280;59638;52.126;5.434;2022-12-07T12:25:48;101784.31;;;13.95;66.59
71791;BME280;59638;52.126;5.434;2022-12-07T12:28:40;101785.50;;;13.71;65.49
71791;BME280;59638;52.126;5.434;2022-12-07T12:31:32;101786.28;;;14.02;67.42
71791;BME280;59638;52.126;5.434;2022-12-07T12:34:03;101777.66;;;14.58;63.79
71791;BME280;59638;52.126;5.434;2022-12-07T12:47:01;101760.22;;;15.12;62.36
71791;BME280;59638;52.126;5.434;2022-12-07T12:54:35;101754.44;;;14.70;61.39
71791;BME280;59638;52.126;5.434;2022-12-07T13:02:37;101772.75;;;9.90;74.95
71791;BME280;59638;52.126;5.434;2022-12-07T13:18:21;101759.03;;;5.55;88.14
71791;BME280;59638;52.126;5.434;2022-12-07T13:29:09;101760.47;;;4.95;90.25
71791;BME280;59638;52.126;5.434;2022-12-07T13:31:45;101747.13;;;4.83;90.35
71791;BME280;59638;52.126;5.434;2022-12-07T13:34:40;101748.41;;;4.75;90.87
71791;BME280;59638;52.126;5.434;2022-12-07T13:37:12;101738.34;;;4.84;90.96
71791;BME280;59638;52.126;5.434;2022-12-07T13:39:51;101739.75;;;5.07;91.53
71791;BME280;59638;52.126;5.434;2022-12-07T13:42:29;101735.66;;;5.19;91.32
71791;BME280;59638;52.126;5.434;2022-12-07T13:44:57;101728.97;;;5.13;91.46
71791;BME280;59638;52.126;5.434;2022-12-07T13:47:32;101729.13;;;5.10;92.00
71791;BME280;59638;52.126;5.434;2022-12-07T13:50:01;101730.81;;;5.11;92.00
71791;BME280;59638;52.126;5.434;2022-12-07T13:52:30;101720.97;;;5.16;92.05
71791;BME280;59638;52.126;5.434;2022-12-07T13:57:34;101724.53;;;5.31;92.51
71791;BME280;59638;52.126;5.434;2022-12-07T14:00:04;101719.91;;;5.36;92.61
71791;BME280;59638;52.126;5.434;2022-12-07T14:02:34;101720.75;;;5.37;92.80
71791;BME280;59638;52.126;5.434;2022-12-07T14:08:01;101712.97;;;5.35;93.58
71791;BME280;59638;52.126;5.434;2022-12-07T14:10:33;101713.63;;;5.39;93.37
71791;BME280;59638;52.126;5.434;2022-12-07T14:13:02;101711.78;;;5.41;93.42
71791;BME280;59638;52.126;5.434;2022-12-07T14:15:32;101705.38;;;5.46;92.74
71791;BME280;59638;52.126;5.434;2022-12-07T14:18:00;101703.34;;;5.52;92.38
71791;BME280;59638;52.126;5.434;2022-12-07T14:20:35;101700.63;;;5.53;92.14
71791;BME280;59638;52.126;5.434;2022-12-07T14:23:04;101704.03;;;5.55;92.19
71791;BME280;59638;52.126;5.434;2022-12-07T14:28:31;101697.09;;;5.54;92.40
71791;BME280;59638;52.126;5.434;2022-12-07T14:30:59;101681.56;;;5.51;92.85
71791;BME280;59638;52.126;5.434;2022-12-07T14:33:26;101687.72;;;5.50;93.08
71791;BME280;59638;52.126;5.434;2022-12-07T14:35:54;101693.13;;;5.47;93.95
71791;BME280;59638;52.126;5.434;2022-12-07T14:38:25;101690.69;;;5.44;93.70
71791;BME280;59638;52.126;5.434;2022-12-07T14:40:53;101685.53;;;5.42;93.82
71791;BME280;59638;52.126;5.434;2022-12-07T14:43:20;101686.72;;;5.37;93.95
71791;BME280;59638;52.126;5.434;2022-12-07T14:45:47;101686.28;;;5.29;94.17
71791;BME280;59638;52.126;5.434;2022-12-07T14:48:15;101682.13;;;5.25;94.13
71791;BME280;59638;52.126;5.434;2022-12-07T14:51:02;101681.00;;;5.13;94.48
71791;BME280;59638;52.126;5.434;2022-12-07T14:53:50;101678.81;;;5.05;94.35
71791;BME280;59638;52.126;5.434;2022-12-07T14:56:23;101679.13;;;4.99;94.41